sensor_id;sensor_type;location;lat;lon;timestamp;pressure;altitude;pressure_sealevel;temperature;humidity
76260;BME280;65076;52.362;6.588;2022-12-10T00:01:48;100853.88;;;1.13;73.63
76260;BME280;65076;52.362;6.588;2022-12-10T00:04:18;100859.34;;;0.95;73.84
76260;BME280;65076;52.362;6.588;2022-12-10T00:06:47;100857.28;;;1.27;72.25
76260;BME280;65076;52.362;6.588;2022-12-10T00:09:18;100852.81;;;1.30;72.79
76260;BME280;65076;52.362;6.588;2022-12-10T00:11:47;100856.34;;;1.32;72.28
76260;BME280;65076;52.362;6.588;2022-12-10T00:14:20;100852.75;;;1.36;72.88
76260;BME280;65076;52.362;6.588;2022-12-10T00:16:48;100859.09;;;1.22;72.57
76260;BME280;65076;52.362;6.588;2022-12-10T00:19:17;100852.91;;;1.20;73.44
76260;BME280;65076;52.362;6.588;2022-12-10T00:21:45;100857.47;;;1.09;74.27
76260;BME280;65076;52.362;6.588;2022-12-10T00:24:13;100859.00;;;1.33;73.10
76260;BME280;65076;52.362;6.588;2022-12-10T00:26:41;100854.38;;;1.49;73.03
76260;BME280;65076;52.362;6.588;2022-12-10T00:29:11;100856.28;;;1.36;72.40
76260;BME280;65076;52.362;6.588;2022-12-10T00:31:39;100852.03;;;1.20;71.88
76260;BME280;65076;52.362;6.588;2022-12-10T00:34:09;100853.41;;;0.66;73.86
76260;BME280;65076;52.362;6.588;2022-12-10T00:36:43;100852.25;;;0.99;73.61
76260;BME280;65076;52.362;6.588;2022-12-10T00:39:17;100858.84;;;0.51;74.32
76260;BME280;65076;52.362;6.588;2022-12-10T00:41:46;100861.03;;;1.08;73.88
76260;BME280;65076;52.362;6.588;2022-12-10T00:44:16;100859.06;;;1.27;72.90
76260;BME280;65076;52.362;6.588;2022-12-10T00:46:45;100854.59;;;1.29;72.54
76260;BME280;65076;52.362;6.588;2022-12-10T00:49:13;100855.59;;;1.19;72.25
76260;BME280;65076;52.362;6.588;2022-12-10T00:51:42;100854.59;;;1.31;72.48
76260;BME280;65076;52.362;6.588;2022-12-10T00:54:10;100859.84;;;1.37;71.73
76260;BME280;65076;52.362;6.588;2022-12-10T00:56:38;100862.50;;;1.37;72.30
76260;BME280;65076;52.362;6.588;2022-12-10T00:59:06;100865.16;;;1.40;72.89
76260;BME280;65076;52.362;6.588;2022-12-10T01:01:36;100861.50;;;1.48;72.38
76260;BME280;65076;52.362;6.588;2022-12-10T01:04:08;100859.66;;;1.52;72.62
76260;BME280;65076;52.362;6.588;2022-12-10T01:06:43;100861.66;;;1.35;72.82
76260;BME280;65076;52.362;6.588;2022-12-10T01:09:14;100864.94;;;1.59;72.18
76260;BME280;65076;52.362;6.588;2022-12-10T01:11:44;100866.22;;;1.20;73.01
76260;BME280;65076;52.362;6.588;2022-12-10T01:14:17;100860.72;;;1.40;72.92
76260;BME280;65076;52.362;6.588;2022-12-10T01:16:46;100867.09;;;1.25;73.17
76260;BME280;65076;52.362;6.588;2022-12-10T01:19:15;100874.78;;;1.53;72.20
76260;BME280;65076;52.362;6.588;2022-12-10T01:21:45;100881.59;;;0.94;73.48
76260;BME280;65076;52.362;6.588;2022-12-10T01:24:13;100883.50;;;0.74;74.79
76260;BME280;65076;52.362;6.588;2022-12-10T01:26:41;100884.38;;;0.74;75.11
76260;BME280;65076;52.362;6.588;2022-12-10T01:29:10;100890.25;;;1.17;74.72
76260;BME280;65076;52.362;6.588;2022-12-10T01:31:39;100885.22;;;0.82;75.21
76260;BME280;65076;52.362;6.588;2022-12-10T01:34:11;100886.03;;;0.91;74.50
76260;BME280;65076;52.362;6.588;2022-12-10T01:36:42;100894.06;;;0.88;75.20
76260;BME280;65076;52.362;6.588;2022-12-10T01:39:14;100900.75;;;1.36;74.18
76260;BME280;65076;52.362;6.588;2022-12-10T01:41:46;100900.53;;;1.52;73.45
76260;BME280;65076;52.362;6.588;2022-12-10T01:47:25;100894.59;;;1.26;74.73
76260;BME280;65076;52.362;6.588;2022-12-10T01:49:53;100899.03;;;1.30;74.45
76260;BME280;65076;52.362;6.588;2022-12-10T01:52:21;100898.28;;;1.14;75.07
76260;BME280;65076;52.362;6.588;2022-12-10T01:54:50;100901.66;;;1.32;74.26
76260;BME280;65076;52.362;6.588;2022-12-10T01:57:21;100898.81;;;1.47;73.74
76260;BME280;65076;52.362;6.588;2022-12-10T01:59:54;100903.91;;;1.71;73.18
76260;BME280;65076;52.362;6.588;2022-12-10T02:02:42;100906.47;;;1.79;72.26
76260;BME280;65076;52.362;6.588;2022-12-10T02:05:24;100906.59;;;1.68;72.93
76260;BME280;65076;52.362;6.588;2022-12-10T02:08:03;100904.81;;;1.70;72.21
76260;BME280;65076;52.362;6.588;2022-12-10T02:10:49;100901.81;;;1.97;71.93
76260;BME280;65076;52.362;6.588;2022-12-10T02:13:30;100908.69;;;2.15;71.96
76260;BME280;65076;52.362;6.588;2022-12-10T02:16:06;100898.69;;;1.59;71.90
76260;BME280;65076;52.362;6.588;2022-12-10T02:18:44;100901.94;;;1.88;72.36
76260;BME280;65076;52.362;6.588;2022-12-10T02:21:22;100898.81;;;1.50;73.70
76260;BME280;65076;52.362;6.588;2022-12-10T02:23:56;100900.22;;;1.83;71.98
76260;BME280;65076;52.362;6.588;2022-12-10T02:26:33;100895.19;;;1.54;73.11
76260;BME280;65076;52.362;6.588;2022-12-10T02:29:15;100890.44;;;1.83;72.31
76260;BME280;65076;52.362;6.588;2022-12-10T02:31:52;100883.41;;;1.73;73.10
76260;BME280;65076;52.362;6.588;2022-12-10T02:34:26;100884.66;;;2.15;70.90
76260;BME280;65076;52.362;6.588;2022-12-10T02:37:02;100886.06;;;1.78;71.89
76260;BME280;65076;52.362;6.588;2022-12-10T02:39:38;100883.41;;;1.75;72.61
76260;BME280;65076;52.362;6.588;2022-12-10T02:42:11;100884.47;;;1.60;72.17
76260;BME280;65076;52.362;6.588;2022-12-10T02:44:44;100877.25;;;1.68;72.88
76260;BME280;65076;52.362;6.588;2022-12-10T02:47:15;100884.19;;;1.84;72.93
76260;BME280;65076;52.362;6.588;2022-12-10T02:49:47;100883.53;;;1.64;72.66
76260;BME280;65076;52.362;6.588;2022-12-10T02:52:22;100888.94;;;1.59;72.03
76260;BME280;65076;52.362;6.588;2022-12-10T02:54:52;100888.03;;;1.62;72.34
76260;BME280;65076;52.362;6.588;2022-12-10T02:57:35;100889.16;;;1.40;73.19
76260;BME280;65076;52.362;6.588;2022-12-10T03:00:12;100892.91;;;1.16;73.92
76260;BME280;65076;52.362;6.588;2022-12-10T03:05:58;100887.34;;;0.33;76.45
76260;BME280;65076;52.362;6.588;2022-12-10T03:08:35;100885.94;;;1.01;75.97
76260;BME280;65076;52.362;6.588;2022-12-10T03:11:12;100884.53;;;0.55;75.90
76260;BME280;65076;52.362;6.588;2022-12-10T03:13:49;100889.94;;;0.46;76.15
76260;BME280;65076;52.362;6.588;2022-12-10T03:16:24;100881.69;;;0.79;75.52
76260;BME280;65076;52.362;6.588;2022-12-10T03:19:01;100879.06;;;0.76;75.53
76260;BME280;65076;52.362;6.588;2022-12-10T03:21:34;100881.81;;;0.65;76.15
76260;BME280;65076;52.362;6.588;2022-12-10T03:24:06;100879.09;;;0.73;76.09
76260;BME280;65076;52.362;6.588;2022-12-10T03:26:36;100876.41;;;0.74;76.02
76260;BME280;65076;52.362;6.588;2022-12-10T03:29:07;100884.47;;;0.64;76.27
76260;BME280;65076;52.362;6.588;2022-12-10T03:31:40;100873.16;;;0.34;77.49
76260;BME280;65076;52.362;6.588;2022-12-10T03:34:10;100880.28;;;0.26;77.36
76260;BME280;65076;52.362;6.588;2022-12-10T03:36:39;100884.50;;;0.58;77.10
76260;BME280;65076;52.362;6.588;2022-12-10T03:39:09;100872.97;;;0.62;76.11
76260;BME280;65076;52.362;6.588;2022-12-10T03:41:38;100881.00;;;0.57;76.44
76260;BME280;65076;52.362;6.588;2022-12-10T03:44:06;100881.91;;;0.52;77.13
76260;BME280;65076;52.362;6.588;2022-12-10T03:46:34;100880.22;;;0.38;77.17
76260;BME280;65076;52.362;6.588;2022-12-10T03:49:04;100883.78;;;0.33;77.27
76260;BME280;65076;52.362;6.588;2022-12-10T03:51:32;100885.66;;;0.19;78.02
76260;BME280;65076;52.362;6.588;2022-12-10T03:54:00;100889.13;;;0.34;77.96
76260;BME280;65076;52.362;6.588;2022-12-10T03:56:28;100881.09;;;0.39;77.25
76260;BME280;65076;52.362;6.588;2022-12-10T03:58:56;100888.06;;;0.61;77.14
76260;BME280;65076;52.362;6.588;2022-12-10T04:01:23;100885.34;;;0.66;77.30
76260;BME280;65076;52.362;6.588;2022-12-10T04:03:51;100884.50;;;0.59;76.11
76260;BME280;65076;52.362;6.588;2022-12-10T04:06:21;100891.78;;;0.34;76.90
76260;BME280;65076;52.362;6.588;2022-12-10T04:08:51;100881.16;;;0.30;77.14
76260;BME280;65076;52.362;6.588;2022-12-10T04:11:24;100893.44;;;0.49;76.45
76260;BME280;65076;52.362;6.588;2022-12-10T04:13:53;100889.84;;;0.59;76.90
76260;BME280;65076;52.362;6.588;2022-12-10T04:16:38;100891.56;;;0.68;76.13
76260;BME280;65076;52.362;6.588;2022-12-10T04:19:08;100894.31;;;0.54;76.63
76260;BME280;65076;52.362;6.588;2022-12-10T04:21:41;100892.38;;;0.74;75.88
76260;BME280;65076;52.362;6.588;2022-12-10T04:24:29;100895.28;;;0.39;75.75
76260;BME280;65076;52.362;6.588;2022-12-10T04:27:18;100899.75;;;0.34;77.08
76260;BME280;65076;52.362;6.588;2022-12-10T04:29:48;100900.88;;;-0.15;78.33
76260;BME280;65076;52.362;6.588;2022-12-10T04:32:17;100899.78;;;0.27;77.48
76260;BME280;65076;52.362;6.588;2022-12-10T04:34:45;100893.66;;;0.11;79.19
76260;BME280;65076;52.362;6.588;2022-12-10T04:37:15;100893.56;;;0.32;78.59
76260;BME280;65076;52.362;6.588;2022-12-10T04:39:45;100889.97;;;0.39;77.64
76260;BME280;65076;52.362;6.588;2022-12-10T04:42:13;100894.56;;;0.06;77.77
76260;BME280;65076;52.362;6.588;2022-12-10T04:44:41;100888.09;;;0.55;77.31
76260;BME280;65076;52.362;6.588;2022-12-10T04:47:10;100897.00;;;0.51;76.41
76260;BME280;65076;52.362;6.588;2022-12-10T04:49:39;100892.72;;;0.21;76.76
76260;BME280;65076;52.362;6.588;2022-12-10T04:52:10;100902.44;;;0.28;77.91
76260;BME280;65076;52.362;6.588;2022-12-10T04:54:41;100902.41;;;0.36;76.93
76260;BME280;65076;52.362;6.588;2022-12-10T04:57:10;100906.94;;;0.17;77.35
76260;BME280;65076;52.362;6.588;2022-12-10T04:59:38;100906.78;;;0.46;76.54
76260;BME280;65076;52.362;6.588;2022-12-10T05:02:06;100903.38;;;0.26;77.02
76260;BME280;65076;52.362;6.588;2022-12-10T05:04:34;100898.72;;;0.60;76.43
76260;BME280;65076;52.362;6.588;2022-12-10T05:07:02;100904.03;;;0.60;75.32
76260;BME280;65076;52.362;6.588;2022-12-10T05:09:30;100902.34;;;0.43;76.10
76260;BME280;65076;52.362;6.588;2022-12-10T05:11:59;100908.84;;;-0.15;77.67
76260;BME280;65076;52.362;6.588;2022-12-10T05:14:27;100907.06;;;-0.06;78.56
76260;BME280;65076;52.362;6.588;2022-12-10T05:16:55;100906.09;;;0.14;78.36
76260;BME280;65076;52.362;6.588;2022-12-10T05:19:23;100903.56;;;-0.17;79.19
76260;BME280;65076;52.362;6.588;2022-12-10T05:21:53;100908.91;;;-0.21;79.54
76260;BME280;65076;52.362;6.588;2022-12-10T05:24:39;100903.63;;;-0.39;79.94
76260;BME280;65076;52.362;6.588;2022-12-10T05:27:09;100906.28;;;-0.39;80.20
76260;BME280;65076;52.362;6.588;2022-12-10T05:29:36;100911.59;;;-0.35;80.17
76260;BME280;65076;52.362;6.588;2022-12-10T05:32:05;100900.06;;;-0.35;79.40
76260;BME280;65076;52.362;6.588;2022-12-10T05:34:33;100909.75;;;-0.21;79.93
76260;BME280;65076;52.362;6.588;2022-12-10T05:37:01;100902.56;;;0.10;79.12
76260;BME280;65076;52.362;6.588;2022-12-10T05:39:30;100908.78;;;0.08;78.08
76260;BME280;65076;52.362;6.588;2022-12-10T05:41:58;100908.78;;;0.03;78.53
76260;BME280;65076;52.362;6.588;2022-12-10T05:44:27;100911.28;;;0.36;78.34
76260;BME280;65076;52.362;6.588;2022-12-10T05:46:55;100917.63;;;0.07;79.49
76260;BME280;65076;52.362;6.588;2022-12-10T05:49:23;100917.47;;;0.40;78.72
76260;BME280;65076;52.362;6.588;2022-12-10T05:51:54;100922.00;;;0.21;78.50
76260;BME280;65076;52.362;6.588;2022-12-10T05:54:23;100915.78;;;0.25;77.87
76260;BME280;65076;52.362;6.588;2022-12-10T05:56:51;100917.53;;;0.26;78.58
76260;BME280;65076;52.362;6.588;2022-12-10T05:59:19;100911.44;;;0.06;78.86
76260;BME280;65076;52.362;6.588;2022-12-10T06:01:49;100919.22;;;0.44;78.59
76260;BME280;65076;52.362;6.588;2022-12-10T06:04:17;100915.72;;;0.34;78.05
76260;BME280;65076;52.362;6.588;2022-12-10T06:06:45;100918.19;;;0.65;78.00
76260;BME280;65076;52.362;6.588;2022-12-10T06:09:14;100919.97;;;0.66;77.21
76260;BME280;65076;52.362;6.588;2022-12-10T06:11:42;100923.59;;;0.57;77.23
76260;BME280;65076;52.362;6.588;2022-12-10T06:14:10;100924.84;;;-0.24;78.55
76260;BME280;65076;52.362;6.588;2022-12-10T06:16:39;100917.81;;;-0.39;80.76
76260;BME280;65076;52.362;6.588;2022-12-10T06:19:09;100916.84;;;-0.20;79.70
76260;BME280;65076;52.362;6.588;2022-12-10T06:21:37;100918.66;;;-0.23;79.87
76260;BME280;65076;52.362;6.588;2022-12-10T06:24:06;100916.84;;;-0.17;79.46
76260;BME280;65076;52.362;6.588;2022-12-10T06:26:34;100918.53;;;0.01;79.45
76260;BME280;65076;52.362;6.588;2022-12-10T06:29:02;100924.72;;;0.09;78.59
76260;BME280;65076;52.362;6.588;2022-12-10T06:31:31;100922.94;;;0.11;78.72
76260;BME280;65076;52.362;6.588;2022-12-10T06:34:01;100918.56;;;-0.02;78.71
76260;BME280;65076;52.362;6.588;2022-12-10T06:36:30;100934.47;;;0.13;78.22
76260;BME280;65076;52.362;6.588;2022-12-10T06:38:58;100930.97;;;0.05;78.03
76260;BME280;65076;52.362;6.588;2022-12-10T06:41:27;100935.53;;;-0.39;80.09
76260;BME280;65076;52.362;6.588;2022-12-10T06:43:58;100945.25;;;-0.32;79.52
76260;BME280;65076;52.362;6.588;2022-12-10T06:46:26;100938.09;;;-0.08;79.07
76260;BME280;65076;52.362;6.588;2022-12-10T06:48:55;100941.75;;;-0.62;79.76
76260;BME280;65076;52.362;6.588;2022-12-10T06:51:23;100950.44;;;0.09;78.61
76260;BME280;65076;52.362;6.588;2022-12-10T06:53:53;100946.97;;;-0.15;78.25
76260;BME280;65076;52.362;6.588;2022-12-10T06:56:22;100946.06;;;0.00;78.08
76260;BME280;65076;52.362;6.588;2022-12-10T06:58:50;100944.22;;;0.14;77.38
76260;BME280;65076;52.362;6.588;2022-12-10T07:01:20;100949.44;;;0.32;77.04
76260;BME280;65076;52.362;6.588;2022-12-10T07:03:53;100955.66;;;0.30;76.75
76260;BME280;65076;52.362;6.588;2022-12-10T07:06:22;100956.75;;;-0.23;78.40
76260;BME280;65076;52.362;6.588;2022-12-10T07:08:53;100956.66;;;0.09;77.84
76260;BME280;65076;52.362;6.588;2022-12-10T07:11:22;100960.25;;;-0.09;78.09
76260;BME280;65076;52.362;6.588;2022-12-10T07:13:52;100963.00;;;-0.57;79.02
76260;BME280;65076;52.362;6.588;2022-12-10T07:16:21;100960.25;;;-0.13;79.05
76260;BME280;65076;52.362;6.588;2022-12-10T07:18:52;100969.16;;;-0.35;79.86
76260;BME280;65076;52.362;6.588;2022-12-10T07:21:22;100967.38;;;-0.21;78.95
76260;BME280;65076;52.362;6.588;2022-12-10T07:23:54;100965.56;;;-0.07;78.30
76260;BME280;65076;52.362;6.588;2022-12-10T07:26:25;100959.28;;;0.14;77.15
76260;BME280;65076;52.362;6.588;2022-12-10T07:28:55;100957.59;;;-0.12;77.95
76260;BME280;65076;52.362;6.588;2022-12-10T07:31:23;100970.03;;;-0.18;78.45
76260;BME280;65076;52.362;6.588;2022-12-10T07:33:52;100973.63;;;-0.47;78.83
76260;BME280;65076;52.362;6.588;2022-12-10T07:36:22;100975.34;;;-0.12;78.37
76260;BME280;65076;52.362;6.588;2022-12-10T07:38:52;100970.84;;;0.05;78.43
76260;BME280;65076;52.362;6.588;2022-12-10T07:41:22;100970.84;;;0.02;77.56
76260;BME280;65076;52.362;6.588;2022-12-10T07:43:51;100967.34;;;-0.15;77.39
76260;BME280;65076;52.362;6.588;2022-12-10T07:46:21;100970.00;;;-0.15;78.35
76260;BME280;65076;52.362;6.588;2022-12-10T07:48:51;100977.06;;;-0.02;77.71
76260;BME280;65076;52.362;6.588;2022-12-10T07:51:21;100976.97;;;0.24;77.73
76260;BME280;65076;52.362;6.588;2022-12-10T07:53:52;100976.09;;;0.25;76.71
76260;BME280;65076;52.362;6.588;2022-12-10T07:56:22;100982.19;;;0.42;76.61
76260;BME280;65076;52.362;6.588;2022-12-10T07:58:52;100982.19;;;0.43;76.48
76260;BME280;65076;52.362;6.588;2022-12-10T08:01:22;100987.44;;;0.59;75.54
76260;BME280;65076;52.362;6.588;2022-12-10T08:03:54;100995.44;;;0.59;75.28
76260;BME280;65076;52.362;6.588;2022-12-10T08:06:24;100998.88;;;0.74;74.57
76260;BME280;65076;52.362;6.588;2022-12-10T08:08:57;100995.44;;;0.60;74.44
76260;BME280;65076;52.362;6.588;2022-12-10T08:11:27;100999.91;;;0.51;75.04
76260;BME280;65076;52.362;6.588;2022-12-10T08:13:55;100999.97;;;0.37;75.37
76260;BME280;65076;52.362;6.588;2022-12-10T08:16:26;101001.84;;;0.12;76.59
76260;BME280;65076;52.362;6.588;2022-12-10T08:18:57;101003.59;;;0.19;77.34
76260;BME280;65076;52.362;6.588;2022-12-10T08:21:29;101001.81;;;0.18;77.42
76260;BME280;65076;52.362;6.588;2022-12-10T08:24:00;100999.69;;;0.90;75.91
76260;BME280;65076;52.362;6.588;2022-12-10T08:26:30;101003.16;;;1.00;74.69
76260;BME280;65076;52.362;6.588;2022-12-10T08:28:59;101002.19;;;1.11;74.87
76260;BME280;65076;52.362;6.588;2022-12-10T08:31:28;101009.44;;;0.94;74.55
76260;BME280;65076;52.362;6.588;2022-12-10T08:34:03;101014.69;;;1.00;74.68
76260;BME280;65076;52.362;6.588;2022-12-10T08:36:32;101021.13;;;0.67;75.00
76260;BME280;65076;52.362;6.588;2022-12-10T08:39:02;101018.06;;;1.28;74.78
76260;BME280;65076;52.362;6.588;2022-12-10T08:41:30;101021.63;;;1.28;73.37
76260;BME280;65076;52.362;6.588;2022-12-10T08:43:59;101019.03;;;1.16;74.58
76260;BME280;65076;52.362;6.588;2022-12-10T08:46:27;101023.53;;;1.10;74.47
76260;BME280;65076;52.362;6.588;2022-12-10T08:48:57;101016.31;;;1.25;73.87
76260;BME280;65076;52.362;6.588;2022-12-10T08:51:26;101015.31;;;1.37;73.98
76260;BME280;65076;52.362;6.588;2022-12-10T08:53:55;101018.06;;;1.26;74.05
76260;BME280;65076;52.362;6.588;2022-12-10T08:56:24;101029.84;;;0.98;74.68
76260;BME280;65076;52.362;6.588;2022-12-10T08:58:52;101031.53;;;1.08;75.00
76260;BME280;65076;52.362;6.588;2022-12-10T09:01:20;101033.44;;;0.85;76.21
76260;BME280;65076;52.362;6.588;2022-12-10T09:03:49;101031.69;;;0.81;76.41
76260;BME280;65076;52.362;6.588;2022-12-10T09:06:19;101032.72;;;0.56;77.53
76260;BME280;65076;52.362;6.588;2022-12-10T09:08:50;101032.47;;;1.04;76.14
76260;BME280;65076;52.362;6.588;2022-12-10T09:11:21;101034.25;;;1.04;76.74
76260;BME280;65076;52.362;6.588;2022-12-10T09:13:53;101041.38;;;0.97;76.79
76260;BME280;65076;52.362;6.588;2022-12-10T09:16:23;101028.69;;;1.31;76.35
76260;BME280;65076;52.362;6.588;2022-12-10T09:18:56;101047.72;;;0.72;77.06
76260;BME280;65076;52.362;6.588;2022-12-10T09:21:23;101045.72;;;1.12;76.18
76260;BME280;65076;52.362;6.588;2022-12-10T09:23:52;101042.84;;;1.38;75.31
76260;BME280;65076;52.362;6.588;2022-12-10T09:26:20;101029.75;;;1.07;75.70
76260;BME280;65076;52.362;6.588;2022-12-10T09:28:56;101037.59;;;1.27;75.57
76260;BME280;65076;52.362;6.588;2022-12-10T09:31:41;101038.19;;;1.62;75.29
76260;BME280;65076;52.362;6.588;2022-12-10T09:34:13;101055.50;;;1.07;76.13
76260;BME280;65076;52.362;6.588;2022-12-10T09:36:41;101051.03;;;1.12;76.25
76260;BME280;65076;52.362;6.588;2022-12-10T09:39:10;101058.00;;;1.36;75.14
76260;BME280;65076;52.362;6.588;2022-12-10T09:41:52;101068.06;;;0.88;77.06
76260;BME280;65076;52.362;6.588;2022-12-10T09:44:44;101064.59;;;0.71;77.75
76260;BME280;65076;52.362;6.588;2022-12-10T09:47:21;101067.03;;;1.12;76.77
76260;BME280;65076;52.362;6.588;2022-12-10T09:50:02;101070.69;;;0.99;76.19
76260;BME280;65076;52.362;6.588;2022-12-10T09:52:43;101068.16;;;0.70;77.78
76260;BME280;65076;52.362;6.588;2022-12-10T09:55:17;101058.97;;;1.22;76.29
76260;BME280;65076;52.362;6.588;2022-12-10T09:57:50;101056.25;;;1.30;76.19
76260;BME280;65076;52.362;6.588;2022-12-10T10:00:26;101059.66;;;1.49;75.37
76260;BME280;65076;52.362;6.588;2022-12-10T10:03:00;101061.47;;;1.45;75.43
76260;BME280;65076;52.362;6.588;2022-12-10T10:05:31;101082.16;;;1.07;75.69
76260;BME280;65076;52.362;6.588;2022-12-10T10:08:04;101072.38;;;1.09;75.82
76260;BME280;65076;52.362;6.588;2022-12-10T10:10:36;101075.03;;;1.13;76.44
76260;BME280;65076;52.362;6.588;2022-12-10T10:13:15;101068.69;;;1.26;76.52
76260;BME280;65076;52.362;6.588;2022-12-10T10:15:52;101075.09;;;1.01;76.68
76260;BME280;65076;52.362;6.588;2022-12-10T10:18:25;101077.50;;;1.36;75.77
76260;BME280;65076;52.362;6.588;2022-12-10T10:21:00;101073.91;;;1.42;75.46
76260;BME280;65076;52.362;6.588;2022-12-10T10:23:29;101081.28;;;1.09;76.51
76260;BME280;65076;52.362;6.588;2022-12-10T10:25:57;101070.38;;;1.43;75.26
76260;BME280;65076;52.362;6.588;2022-12-10T10:28:26;101079.47;;;1.11;76.27
76260;BME280;65076;52.362;6.588;2022-12-10T10:30:56;101083.06;;;1.04;77.10
76260;BME280;65076;52.362;6.588;2022-12-10T10:33:24;101080.25;;;1.28;75.99
76260;BME280;65076;52.362;6.588;2022-12-10T10:35:54;101069.50;;;1.36;76.20
76260;BME280;65076;52.362;6.588;2022-12-10T10:38:27;101061.50;;;1.39;75.43
76260;BME280;65076;52.362;6.588;2022-12-10T10:40:58;101066.72;;;1.53;76.15
76260;BME280;65076;52.362;6.588;2022-12-10T10:43:32;101079.22;;;1.48;75.77
76260;BME280;65076;52.362;6.588;2022-12-10T10:46:12;101085.66;;;1.16;76.36
76260;BME280;65076;52.362;6.588;2022-12-10T10:48:42;101078.38;;;1.43;76.11
76260;BME280;65076;52.362;6.588;2022-12-10T10:51:18;101076.59;;;1.43;76.32
76260;BME280;65076;52.362;6.588;2022-12-10T10:53:51;101076.66;;;1.33;76.69
76260;BME280;65076;52.362;6.588;2022-12-10T10:56:21;101082.22;;;0.99;77.47
76260;BME280;65076;52.362;6.588;2022-12-10T10:58:56;101084.97;;;0.75;78.28
76260;BME280;65076;52.362;6.588;2022-12-10T11:01:45;101080.47;;;0.89;78.82
76260;BME280;65076;52.362;6.588;2022-12-10T11:04:16;101088.56;;;0.69;79.42
76260;BME280;65076;52.362;6.588;2022-12-10T11:06:49;101092.09;;;0.71;79.59
76260;BME280;65076;52.362;6.588;2022-12-10T11:09:26;101094.69;;;0.88;79.78
76260;BME280;65076;52.362;6.588;2022-12-10T11:11:59;101090.25;;;0.89;79.76
76260;BME280;65076;52.362;6.588;2022-12-10T11:14:30;101084.78;;;1.11;79.23
76260;BME280;65076;52.362;6.588;2022-12-10T11:17:18;101091.97;;;0.96;78.52
76260;BME280;65076;52.362;6.588;2022-12-10T11:19:56;101089.84;;;1.54;77.76
76260;BME280;65076;52.362;6.588;2022-12-10T11:22:28;101084.63;;;1.37;77.07
76260;BME280;65076;52.362;6.588;2022-12-10T11:24:58;101088.22;;;1.32;77.98
76260;BME280;65076;52.362;6.588;2022-12-10T11:27:46;101087.31;;;1.33;77.37
76260;BME280;65076;52.362;6.588;2022-12-10T11:30:25;101083.44;;;1.73;76.79
76260;BME280;65076;52.362;6.588;2022-12-10T11:33:15;101080.00;;;1.59;76.29
76260;BME280;65076;52.362;6.588;2022-12-10T11:36:00;101073.75;;;1.64;76.62
76260;BME280;65076;52.362;6.588;2022-12-10T11:38:48;101076.72;;;1.23;77.06
76260;BME280;65076;52.362;6.588;2022-12-10T11:41:32;101063.69;;;1.98;76.87
76260;BME280;65076;52.362;6.588;2022-12-10T11:44:16;101061.63;;;2.22;75.33
76260;BME280;65076;52.362;6.588;2022-12-10T11:47:00;101068.19;;;1.89;75.67
76260;BME280;65076;52.362;6.588;2022-12-10T11:49:49;101063.47;;;2.17;75.81
76260;BME280;65076;52.362;6.588;2022-12-10T11:52:40;101062.00;;;1.88;76.00
76260;BME280;65076;52.362;6.588;2022-12-10T11:55:27;101060.91;;;2.06;75.24
76260;BME280;65076;52.362;6.588;2022-12-10T11:58:17;101062.56;;;2.19;75.12
76260;BME280;65076;52.362;6.588;2022-12-10T12:01:24;101061.97;;;1.91;75.49
76260;BME280;65076;52.362;6.588;2022-12-10T12:04:31;101064.53;;;2.02;76.20
76260;BME280;65076;52.362;6.588;2022-12-10T12:07:41;101059.06;;;2.12;75.01
76260;BME280;65076;52.362;6.588;2022-12-10T12:10:32;101060.69;;;2.30;75.29
76260;BME280;65076;52.362;6.588;2022-12-10T12:13:27;101066.19;;;2.12;76.08
76260;BME280;65076;52.362;6.588;2022-12-10T12:16:04;101069.34;;;1.60;76.40
76260;BME280;65076;52.362;6.588;2022-12-10T12:18:43;101062.25;;;1.61;77.33
76260;BME280;65076;52.362;6.588;2022-12-10T12:21:16;101063.13;;;1.58;77.18
76260;BME280;65076;52.362;6.588;2022-12-10T12:23:50;101057.72;;;1.69;77.97
76260;BME280;65076;52.362;6.588;2022-12-10T12:26:32;101063.94;;;1.71;76.99
76260;BME280;65076;52.362;6.588;2022-12-10T12:29:13;101062.09;;;1.76;77.63
76260;BME280;65076;52.362;6.588;2022-12-10T12:31:49;101056.47;;;2.06;76.80
76260;BME280;65076;52.362;6.588;2022-12-10T12:34:25;101059.19;;;2.02;76.98
76260;BME280;65076;52.362;6.588;2022-12-10T12:37:02;101061.75;;;2.14;75.99
76260;BME280;65076;52.362;6.588;2022-12-10T12:39:41;101052.63;;;2.32;76.21
76260;BME280;65076;52.362;6.588;2022-12-10T12:42:22;101058.91;;;2.26;75.51
76260;BME280;65076;52.362;6.588;2022-12-10T12:44:59;101060.06;;;2.04;76.54
76260;BME280;65076;52.362;6.588;2022-12-10T12:47:37;101064.63;;;1.91;76.19
76260;BME280;65076;52.362;6.588;2022-12-10T12:50:20;101056.19;;;2.31;76.68
76260;BME280;65076;52.362;6.588;2022-12-10T12:52:56;101057.03;;;2.36;75.88
76260;BME280;65076;52.362;6.588;2022-12-10T12:55:31;101057.84;;;2.44;75.04
76260;BME280;65076;52.362;6.588;2022-12-10T12:58:13;101064.00;;;2.47;74.84
76260;BME280;65076;52.362;6.588;2022-12-10T13:00:50;101072.50;;;2.81;74.65
76260;BME280;65076;52.362;6.588;2022-12-10T13:03:34;101067.03;;;2.16;76.41
76260;BME280;65076;52.362;6.588;2022-12-10T13:06:15;101064.31;;;2.23;75.96
76260;BME280;65076;52.362;6.588;2022-12-10T13:08:47;101065.63;;;1.80;76.19
76260;BME280;65076;52.362;6.588;2022-12-10T13:11:27;101070.75;;;2.04;77.21
76260;BME280;65076;52.362;6.588;2022-12-10T13:14:31;101062.28;;;2.42;75.74
76260;BME280;65076;52.362;6.588;2022-12-10T13:17:08;101068.72;;;2.26;75.73
76260;BME280;65076;52.362;6.588;2022-12-10T13:20:31;101066.03;;;2.26;76.33
76260;BME280;65076;52.362;6.588;2022-12-10T13:23:03;101064.13;;;2.38;75.90
76260;BME280;65076;52.362;6.588;2022-12-10T13:25:41;101064.59;;;1.94;77.52
76260;BME280;65076;52.362;6.588;2022-12-10T13:28:26;101071.19;;;2.41;76.71
76260;BME280;65076;52.362;6.588;2022-12-10T13:31:15;101083.09;;;2.14;76.25
76260;BME280;65076;52.362;6.588;2022-12-10T13:33:49;101082.69;;;2.50;75.48
76260;BME280;65076;52.362;6.588;2022-12-10T13:36:24;101082.66;;;2.52;75.25
76260;BME280;65076;52.362;6.588;2022-12-10T13:39:12;101084.31;;;2.62;75.08